sensor_id;sensor_type;location;lat;lon;timestamp;pressure;altitude;pressure_sealevel;temperature;humidity
21664;BME280;10993;52.510;13.456;2023-05-23T00:00:57;57186.47;;;-146.93;33.95
21664;BME280;10993;52.510;13.456;2023-05-23T00:05:57;57148.00;;;-146.93;33.81
21664;BME280;10993;52.510;13.456;2023-05-23T00:10:59;57174.31;;;-146.93;33.73
21664;BME280;10993;52.510;13.456;2023-05-23T00:15:59;58114.09;;;-146.93;33.80
21664;BME280;10993;52.510;13.456;2023-05-23T00:21:01;57168.25;;;-146.93;34.24
21664;BME280;10993;52.510;13.456;2023-05-23T00:26:04;57091.31;;;-146.93;34.41
21664;BME280;10993;52.510;13.456;2023-05-23T00:31:04;57143.94;;;-146.93;34.39
21664;BME280;10993;52.510;13.456;2023-05-23T00:36:05;57143.94;;;-146.93;34.81
21664;BME280;10993;52.510;13.456;2023-05-23T00:41:06;57028.53;;;-146.93;34.89
21664;BME280;10993;52.510;13.456;2023-05-23T00:46:08;57103.44;;;-146.93;35.07
21664;BME280;10993;52.510;13.456;2023-05-23T00:51:09;57073.06;;;-146.93;35.25
21664;BME280;10993;52.510;13.456;2023-05-23T00:56:11;57018.41;;;-146.93;35.33
21664;BME280;10993;52.510;13.456;2023-05-23T01:01:14;57064.97;;;-146.93;35.43
21664;BME280;10993;52.510;13.456;2023-05-23T01:06:15;57002.19;;;-146.93;35.53
21664;BME280;10993;52.510;13.456;2023-05-23T01:11:22;57022.44;;;-146.93;35.61
21664;BME280;10993;52.510;13.456;2023-05-23T01:16:34;57060.94;;;-146.93;35.83
21664;BME280;10993;52.510;13.456;2023-05-23T01:21:36;57050.81;;;-146.93;35.71
21664;BME280;10993;52.510;13.456;2023-05-23T01:26:56;57099.41;;;-146.93;35.40
21664;BME280;10993;52.510;13.456;2023-05-23T01:32:06;57089.28;;;-146.93;35.61
21664;BME280;10993;52.510;13.456;2023-05-23T01:37:10;57083.19;;;-146.93;35.64
21664;BME280;10993;52.510;13.456;2023-05-23T01:42:11;56990.06;;;-146.93;35.91
21664;BME280;10993;52.510;13.456;2023-05-23T01:47:14;57042.69;;;-146.93;35.96
21664;BME280;10993;52.510;13.456;2023-05-23T01:52:14;57040.69;;;-146.93;36.19
21664;BME280;10993;52.510;13.456;2023-05-23T01:57:15;56961.69;;;-146.93;36.35
21664;BME280;10993;52.510;13.456;2023-05-23T02:02:17;56973.84;;;-146.93;36.44
21664;BME280;10993;52.510;13.456;2023-05-23T02:07:17;57026.50;;;-146.93;36.28
21664;BME280;10993;52.510;13.456;2023-05-23T02:12:22;57038.66;;;-146.93;36.39
21664;BME280;10993;52.510;13.456;2023-05-23T02:17:23;56969.81;;;-146.93;36.46
21664;BME280;10993;52.510;13.456;2023-05-23T02:22:24;57010.31;;;-146.93;36.67
21664;BME280;10993;52.510;13.456;2023-05-23T02:27:24;57030.56;;;-146.93;36.45
21664;BME280;10993;52.510;13.456;2023-05-23T02:32:26;57042.69;;;-146.93;36.68
21664;BME280;10993;52.510;13.456;2023-05-23T02:37:26;57079.16;;;-146.93;36.80
21664;BME280;10993;52.510;13.456;2023-05-23T02:42:27;57010.31;;;-146.93;36.93
21664;BME280;10993;52.510;13.456;2023-05-23T02:47:28;56973.84;;;-146.93;37.06
21664;BME280;10993;52.510;13.456;2023-05-23T02:52:31;57030.56;;;-146.93;36.98
21664;BME280;10993;52.510;13.456;2023-05-23T02:57:31;56998.16;;;-146.93;37.06
21664;BME280;10993;52.510;13.456;2023-05-23T03:02:33;57052.81;;;-146.93;37.08
21664;BME280;10993;52.510;13.456;2023-05-23T03:07:33;57036.63;;;-146.93;37.19
21664;BME280;10993;52.510;13.456;2023-05-23T03:12:33;57034.59;;;-146.93;37.35
21664;BME280;10993;52.510;13.456;2023-05-23T03:17:35;56981.94;;;-146.93;37.34
21664;BME280;10993;52.510;13.456;2023-05-23T03:22:36;56973.84;;;-146.93;37.53
21664;BME280;10993;52.510;13.456;2023-05-23T03:27:36;57036.63;;;-146.93;37.46
21664;BME280;10993;52.510;13.456;2023-05-23T03:32:38;57016.38;;;-146.93;37.47
21664;BME280;10993;52.510;13.456;2023-05-23T03:37:38;56973.84;;;-146.93;39.16
21664;BME280;10993;52.510;13.456;2023-05-23T03:42:39;56929.31;;;-146.93;38.99
21664;BME280;10993;52.510;13.456;2023-05-23T03:47:41;56947.53;;;-146.93;39.16
21664;BME280;10993;52.510;13.456;2023-05-23T03:52:42;56981.94;;;-146.93;38.94
21664;BME280;10993;52.510;13.456;2023-05-23T03:57:42;57002.19;;;-146.93;38.63
21664;BME280;10993;52.510;13.456;2023-05-23T04:02:45;56975.88;;;-146.93;38.80
21664;BME280;10993;52.510;13.456;2023-05-23T04:07:45;56955.63;;;-146.93;38.74
21664;BME280;10993;52.510;13.456;2023-05-23T04:12:45;56975.88;;;-146.93;38.73
21664;BME280;10993;52.510;13.456;2023-05-23T04:17:48;56917.16;;;-146.93;38.78
21664;BME280;10993;52.510;13.456;2023-05-23T04:22:48;56975.88;;;-146.93;38.78
21664;BME280;10993;52.510;13.456;2023-05-23T04:27:49;57010.31;;;-146.93;38.81
21664;BME280;10993;52.510;13.456;2023-05-23T04:32:50;56931.34;;;-146.93;39.23
21664;BME280;10993;52.510;13.456;2023-05-23T04:37:51;56943.47;;;-146.93;39.45
21664;BME280;10993;52.510;13.456;2023-05-23T04:42:55;56973.84;;;-146.93;39.49
21664;BME280;10993;52.510;13.456;2023-05-23T04:47:57;56957.66;;;-146.93;39.99
21664;BME280;10993;52.510;13.456;2023-05-23T04:52:57;56979.94;;;-146.93;40.31
21664;BME280;10993;52.510;13.456;2023-05-23T04:57:58;56937.41;;;-146.93;41.26
21664;BME280;10993;52.510;13.456;2023-05-23T05:03:00;56953.59;;;-146.93;40.78
21664;BME280;10993;52.510;13.456;2023-05-23T05:08:00;56909.06;;;-146.93;41.07
21664;BME280;10993;52.510;13.456;2023-05-23T05:13:00;56929.31;;;-146.93;41.15
21664;BME280;10993;52.510;13.456;2023-05-23T05:18:02;56929.31;;;-146.93;41.34
21664;BME280;10993;52.510;13.456;2023-05-23T05:23:02;56927.28;;;-146.93;41.08
21664;BME280;10993;52.510;13.456;2023-05-23T05:28:03;56848.31;;;-146.93;40.86
21664;BME280;10993;52.510;13.456;2023-05-23T05:33:07;57044.72;;;-146.93;40.62
21664;BME280;10993;52.510;13.456;2023-05-23T05:38:09;56996.13;;;-146.93;40.63
21664;BME280;10993;52.510;13.456;2023-05-23T05:43:10;57050.81;;;-146.93;40.26
21664;BME280;10993;52.510;13.456;2023-05-23T05:48:20;57040.69;;;-146.93;40.12
21664;BME280;10993;52.510;13.456;2023-05-23T05:53:21;57073.06;;;-146.93;39.74
21664;BME280;10993;52.510;13.456;2023-05-23T05:58:21;57113.56;;;-146.93;38.98
21664;BME280;10993;52.510;13.456;2023-05-23T06:03:23;57117.63;;;-146.93;39.90
21664;BME280;10993;52.510;13.456;2023-05-23T06:08:23;57131.81;;;-146.93;39.68
21664;BME280;10993;52.510;13.456;2023-05-23T06:13:24;57062.94;;;-146.93;40.28
21664;BME280;10993;52.510;13.456;2023-05-23T06:18:25;57176.34;;;-146.93;39.49
21664;BME280;10993;52.510;13.456;2023-05-23T06:23:26;57148.00;;;-146.93;39.72
21664;BME280;10993;52.510;13.456;2023-05-23T06:28:26;57184.44;;;-146.93;39.70
21664;BME280;10993;52.510;13.456;2023-05-23T06:33:28;57210.78;;;-146.93;39.57
21664;BME280;10993;52.510;13.456;2023-05-23T06:38:30;57188.50;;;-146.93;39.78
21664;BME280;10993;52.510;13.456;2023-05-23T06:43:32;57267.47;;;-146.93;39.49
21664;BME280;10993;52.510;13.456;2023-05-23T06:48:34;57378.88;;;-146.93;38.25
21664;BME280;10993;52.510;13.456;2023-05-23T06:53:34;57536.84;;;-146.93;36.52
21664;BME280;10993;52.510;13.456;2023-05-23T06:58:35;57583.41;;;-146.93;37.10
21664;BME280;10993;52.510;13.456;2023-05-23T07:03:36;58124.22;;;-146.93;33.95
21664;BME280;10993;52.510;13.456;2023-05-23T07:08:40;58442.25;;;-146.93;31.98
21664;BME280;10993;52.510;13.456;2023-05-23T07:13:41;58464.53;;;-146.93;31.61
21664;BME280;10993;52.510;13.456;2023-05-23T07:18:42;58719.81;;;-146.93;30.91
21664;BME280;10993;52.510;13.456;2023-05-23T07:23:43;58867.69;;;-146.93;30.05
21664;BME280;10993;52.510;13.456;2023-05-23T07:28:43;58975.09;;;-146.93;29.50
21664;BME280;10993;52.510;13.456;2023-05-23T07:33:45;59317.50;;;-146.93;29.00
21664;BME280;10993;52.510;13.456;2023-05-23T07:38:45;59520.16;;;-146.93;28.77
21664;BME280;10993;52.510;13.456;2023-05-23T07:43:45;60219.34;;;-146.93;26.76
21664;BME280;10993;52.510;13.456;2023-05-23T07:48:47;61129.53;;;-146.93;25.00
21664;BME280;10993;52.510;13.456;2023-05-23T07:53:48;60604.47;;;-146.93;25.73
21664;BME280;10993;52.510;13.456;2023-05-23T07:58:48;60322.72;;;-146.93;26.12
21664;BME280;10993;52.510;13.456;2023-05-23T08:03:49;60233.53;;;-146.93;26.06
21664;BME280;10993;52.510;13.456;2023-05-23T08:08:50;60010.59;;;-146.93;26.23
21664;BME280;10993;52.510;13.456;2023-05-23T08:13:50;59992.34;;;-146.93;26.71
21664;BME280;10993;52.510;13.456;2023-05-23T08:18:52;60201.13;;;-146.93;26.47
21664;BME280;10993;52.510;13.456;2023-05-23T08:23:53;61798.66;;;-146.93;25.64
21664;BME280;10993;52.510;13.456;2023-05-23T08:28:53;62062.28;;;-146.93;24.37
21664;BME280;10993;52.510;13.456;2023-05-23T08:33:55;63654.63;;;-146.93;22.84
21664;BME280;10993;52.510;13.456;2023-05-23T08:38:55;64829.56;;;-146.93;21.65
21664;BME280;10993;52.510;13.456;2023-05-23T08:43:56;61597.91;;;-146.93;24.57
21664;BME280;10993;52.510;13.456;2023-05-23T08:48:59;60811.25;;;-146.93;25.43
21664;BME280;10993;52.510;13.456;2023-05-23T08:54:00;60679.50;;;-146.93;26.02
21664;BME280;10993;52.510;13.456;2023-05-23T08:59:01;61739.84;;;-146.93;24.94
21664;BME280;10993;52.510;13.456;2023-05-23T09:04:04;61512.75;;;-146.93;25.02
21664;BME280;10993;52.510;13.456;2023-05-23T09:09:06;61131.56;;;-146.93;25.86
21664;BME280;10993;52.510;13.456;2023-05-23T09:14:06;62853.28;;;-146.93;23.99
21664;BME280;10993;52.510;13.456;2023-05-23T09:19:12;65062.97;;;-146.93;22.45
21664;BME280;10993;52.510;13.456;2023-05-23T09:24:13;66043.50;;;-146.93;22.33
21664;BME280;10993;52.510;13.456;2023-05-23T09:29:17;65688.22;;;-146.93;22.37
21664;BME280;10993;52.510;13.456;2023-05-23T09:34:19;63735.78;;;-146.93;24.05
21664;BME280;10993;52.510;13.456;2023-05-23T09:39:20;64849.88;;;-146.93;23.05
21664;BME280;10993;52.510;13.456;2023-05-23T09:44:21;63054.13;;;-146.93;24.58
21664;BME280;10993;52.510;13.456;2023-05-23T09:49:25;63179.88;;;-146.93;24.98
21664;BME280;10993;52.510;13.456;2023-05-23T09:54:25;63271.19;;;-146.93;25.15
21664;BME280;10993;52.510;13.456;2023-05-23T09:59:27;62484.13;;;-146.93;26.02
21664;BME280;10993;52.510;13.456;2023-05-23T10:04:30;62956.75;;;-146.93;25.83
21664;BME280;10993;52.510;13.456;2023-05-23T10:09:32;62482.09;;;-146.93;25.99
21664;BME280;10993;52.510;13.456;2023-05-23T10:14:37;62544.97;;;-146.93;26.26
21664;BME280;10993;52.510;13.456;2023-05-23T10:19:43;62210.34;;;-146.93;26.81
21664;BME280;10993;52.510;13.456;2023-05-23T10:24:46;63770.28;;;-146.93;24.80
21664;BME280;10993;52.510;13.456;2023-05-23T10:29:47;63238.72;;;-146.93;24.92
21664;BME280;10993;52.510;13.456;2023-05-23T10:34:55;62794.47;;;-146.93;26.07
21664;BME280;10993;52.510;13.456;2023-05-23T10:40:02;62508.47;;;-146.93;26.50
21664;BME280;10993;52.510;13.456;2023-05-23T10:45:16;62482.09;;;-146.93;26.59
21664;BME280;10993;52.510;13.456;2023-05-23T10:50:31;62256.97;;;-146.93;27.35
21664;BME280;10993;52.510;13.456;2023-05-23T10:55:33;62400.97;;;-146.93;26.96
21664;BME280;10993;52.510;13.456;2023-05-23T11:00:34;60604.47;;;-146.93;31.17
21664;BME280;10993;52.510;13.456;2023-05-23T11:05:36;59582.97;;;-146.93;34.48
21664;BME280;10993;52.510;13.456;2023-05-23T11:10:53;59678.22;;;-146.93;34.67
21664;BME280;10993;52.510;13.456;2023-05-23T11:15:54;59524.22;;;-146.93;35.32
21664;BME280;10993;52.510;13.456;2023-05-23T11:20:57;59388.44;;;-146.93;36.19
21664;BME280;10993;52.510;13.456;2023-05-23T11:25:58;59623.50;;;-146.93;36.04
21664;BME280;10993;52.510;13.456;2023-05-23T11:30:59;59674.16;;;-146.93;35.56
21664;BME280;10993;52.510;13.456;2023-05-23T11:36:01;59319.53;;;-146.93;36.39
21664;BME280;10993;52.510;13.456;2023-05-23T11:41:02;59043.97;;;-146.93;37.75
21664;BME280;10993;52.510;13.456;2023-05-23T11:46:06;59031.81;;;-146.93;38.17
21664;BME280;10993;52.510;13.456;2023-05-23T11:51:08;58835.28;;;-146.93;39.05
21664;BME280;10993;52.510;13.456;2023-05-23T11:56:09;58754.25;;;-146.93;39.43
21664;BME280;10993;52.510;13.456;2023-05-23T12:01:11;59447.22;;;-146.93;39.74
21664;BME280;10993;52.510;13.456;2023-05-23T12:06:15;58359.19;;;-146.93;42.17
21664;BME280;10993;52.510;13.456;2023-05-23T12:11:15;58565.81;;;-146.93;41.63
21664;BME280;10993;52.510;13.456;2023-05-23T12:16:16;58521.25;;;-146.93;41.69
21664;BME280;10993;52.510;13.456;2023-05-23T12:21:17;58748.16;;;-146.93;40.91
21664;BME280;10993;52.510;13.456;2023-05-23T12:26:18;58648.91;;;-146.93;40.37
21664;BME280;10993;52.510;13.456;2023-05-23T12:31:20;58756.28;;;-146.93;39.89
21664;BME280;10993;52.510;13.456;2023-05-23T12:36:24;58663.06;;;-146.93;40.73
21664;BME280;10993;52.510;13.456;2023-05-23T12:41:25;58764.38;;;-146.93;40.34
21664;BME280;10993;52.510;13.456;2023-05-23T12:46:26;58679.28;;;-146.93;40.29
21664;BME280;10993;52.510;13.456;2023-05-23T12:51:27;58403.75;;;-146.93;41.29
21664;BME280;10993;52.510;13.456;2023-05-23T12:56:28;58428.06;;;-146.93;42.42
21664;BME280;10993;52.510;13.456;2023-05-23T13:01:29;58488.84;;;-146.93;41.87
21664;BME280;10993;52.510;13.456;2023-05-23T13:06:31;58114.09;;;-146.93;44.92
21664;BME280;10993;52.510;13.456;2023-05-23T13:11:32;58061.41;;;-146.93;45.74
21664;BME280;10993;52.510;13.456;2023-05-23T13:16:32;58124.22;;;-146.93;45.12
21664;BME280;10993;52.510;13.456;2023-05-23T13:21:36;58324.75;;;-146.93;43.94
21664;BME280;10993;52.510;13.456;2023-05-23T13:26:36;58174.84;;;-146.93;44.87
21664;BME280;10993;52.510;13.456;2023-05-23T13:31:37;58160.69;;;-146.93;45.90
21664;BME280;10993;52.510;13.456;2023-05-23T13:36:39;58193.09;;;-146.93;45.41
21664;BME280;10993;52.510;13.456;2023-05-23T13:41:39;57954.06;;;-146.93;47.97
21664;BME280;10993;52.510;13.456;2023-05-23T13:46:40;57877.09;;;-146.93;49.95
21664;BME280;10993;52.510;13.456;2023-05-23T13:51:41;57733.28;;;-146.93;49.70
21664;BME280;10993;52.510;13.456;2023-05-23T13:56:43;57822.41;;;-146.93;50.85
21664;BME280;10993;52.510;13.456;2023-05-23T14:01:43;57781.91;;;-146.93;52.17
21664;BME280;10993;52.510;13.456;2023-05-23T14:06:45;57702.91;;;-146.93;53.17
21664;BME280;10993;52.510;13.456;2023-05-23T14:11:45;57883.19;;;-146.93;51.21
21664;BME280;10993;52.510;13.456;2023-05-23T14:16:46;57840.63;;;-146.93;51.23
21664;BME280;10993;52.510;13.456;2023-05-23T14:21:48;57698.84;;;-146.93;54.32
21664;BME280;10993;52.510;13.456;2023-05-23T14:26:48;57723.16;;;-146.93;54.10
21664;BME280;10993;52.510;13.456;2023-05-23T14:31:49;57678.59;;;-146.93;55.10
21664;BME280;10993;52.510;13.456;2023-05-23T14:36:50;57571.25;;;-146.93;57.39
21664;BME280;10993;52.510;13.456;2023-05-23T14:41:51;57488.22;;;-146.93;58.51
21664;BME280;10993;52.510;13.456;2023-05-23T14:46:51;57486.19;;;-146.93;59.71
21664;BME280;10993;52.510;13.456;2023-05-23T14:51:53;57502.41;;;-146.93;59.49
21664;BME280;10993;52.510;13.456;2023-05-23T14:56:53;57435.56;;;-146.93;61.52
21664;BME280;10993;52.510;13.456;2023-05-23T15:01:54;57411.28;;;-146.93;63.36
21664;BME280;10993;52.510;13.456;2023-05-23T15:06:55;57358.63;;;-146.93;65.74
21664;BME280;10993;52.510;13.456;2023-05-23T15:11:56;57305.97;;;-146.93;67.94
21664;BME280;10993;52.510;13.456;2023-05-23T15:16:57;57178.38;;;-146.93;68.64
21664;BME280;10993;52.510;13.456;2023-05-23T15:22:07;57141.94;;;-146.93;67.97
21664;BME280;10993;52.510;13.456;2023-05-23T15:27:08;57040.69;;;-146.93;68.45
21664;BME280;10993;52.510;13.456;2023-05-23T15:32:08;56994.09;;;-146.93;69.15
21664;BME280;10993;52.510;13.456;2023-05-23T15:37:10;56994.09;;;-146.93;69.56
21664;BME280;10993;52.510;13.456;2023-05-23T15:42:10;56933.34;;;-146.93;68.08
21664;BME280;10993;52.510;13.456;2023-05-23T15:47:10;57042.69;;;-146.93;66.14
21664;BME280;10993;52.510;13.456;2023-05-23T15:52:12;57054.84;;;-146.93;63.43
21664;BME280;10993;52.510;13.456;2023-05-23T15:57:12;57113.56;;;-146.93;63.24
21664;BME280;10993;52.510;13.456;2023-05-23T16:02:13;57030.56;;;-146.93;64.99
21664;BME280;10993;52.510;13.456;2023-05-23T16:07:16;57036.63;;;-146.93;65.56
21664;BME280;10993;52.510;13.456;2023-05-23T16:12:16;56973.84;;;-146.93;69.05
21664;BME280;10993;52.510;13.456;2023-05-23T16:17:17;56925.25;;;-146.93;76.49
21664;BME280;10993;52.510;13.456;2023-05-23T16:22:19;56844.25;;;-146.93;81.05
21664;BME280;10993;52.510;13.456;2023-05-23T16:27:19;56734.91;;;-146.93;83.38
21664;BME280;10993;52.510;13.456;2023-05-23T16:32:20;56718.72;;;-146.93;85.51
21664;BME280;10993;52.510;13.456;2023-05-23T16:37:21;56716.69;;;-146.93;87.25
21664;BME280;10993;52.510;13.456;2023-05-23T16:42:22;56724.78;;;-146.93;87.44
21664;BME280;10993;52.510;13.456;2023-05-23T16:47:22;56674.19;;;-146.93;88.86
21664;BME280;10993;52.510;13.456;2023-05-23T16:52:24;56668.09;;;-146.93;88.40
21664;BME280;10993;52.510;13.456;2023-05-23T16:57:24;56649.88;;;-146.93;89.62
21664;BME280;10993;52.510;13.456;2023-05-23T17:02:25;56427.16;;;-146.93;88.80
21664;BME280;10993;52.510;13.456;2023-05-23T17:07:26;56633.69;;;-146.93;89.15
21664;BME280;10993;52.510;13.456;2023-05-23T17:12:27;56554.72;;;-146.93;90.06
21664;BME280;10993;52.510;13.456;2023-05-23T17:17:27;56617.47;;;-146.93;90.11
21664;BME280;10993;52.510;13.456;2023-05-23T17:22:29;56643.81;;;-146.93;90.68
21664;BME280;10993;52.510;13.456;2023-05-23T17:27:30;56579.00;;;-146.93;89.98
21664;BME280;10993;52.510;13.456;2023-05-23T17:32:30;56625.59;;;-146.93;89.67
21664;BME280;10993;52.510;13.456;2023-05-23T17:37:32;56633.69;;;-146.93;89.72
21664;BME280;10993;52.510;13.456;2023-05-23T17:42:32;56617.47;;;-146.93;86.99
21664;BME280;10993;52.510;13.456;2023-05-23T17:47:34;57727.22;;;-146.93;86.74
21664;BME280;10993;52.510;13.456;2023-05-23T17:52:35;56593.19;;;-146.93;84.96
21664;BME280;10993;52.510;13.456;2023-05-23T17:57:36;56577.00;;;-146.93;83.50
21664;BME280;10993;52.510;13.456;2023-05-23T18:02:36;56579.00;;;-146.93;82.18
21664;BME280;10993;52.510;13.456;2023-05-23T18:07:38;56577.00;;;-146.93;81.41
21664;BME280;10993;52.510;13.456;2023-05-23T18:12:38;56579.00;;;-146.93;81.32
21664;BME280;10993;52.510;13.456;2023-05-23T18:17:39;56585.09;;;-146.93;81.43
21664;BME280;10993;52.510;13.456;2023-05-23T18:22:41;56427.16;;;-146.93;81.99
21664;BME280;10993;52.510;13.456;2023-05-23T18:27:42;56601.28;;;-146.93;80.72
21664;BME280;10993;52.510;13.456;2023-05-23T18:32:42;56625.59;;;-146.93;80.12
21664;BME280;10993;52.510;13.456;2023-05-23T18:37:44;56599.25;;;-146.93;79.78
21664;BME280;10993;52.510;13.456;2023-05-23T18:42:44;56568.88;;;-146.93;80.97
21664;BME280;10993;52.510;13.456;2023-05-23T18:47:46;56526.38;;;-146.93;80.82
21664;BME280;10993;52.510;13.456;2023-05-23T18:52:48;56597.25;;;-146.93;80.29
21664;BME280;10993;52.510;13.456;2023-05-23T18:57:48;56457.53;;;-146.93;81.49
21664;BME280;10993;52.510;13.456;2023-05-23T19:02:48;56542.56;;;-146.93;82.21
21664;BME280;10993;52.510;13.456;2023-05-23T19:07:50;56615.47;;;-146.93;81.52
21664;BME280;10993;52.510;13.456;2023-05-23T19:12:50;56603.31;;;-146.93;81.65
21664;BME280;10993;52.510;13.456;2023-05-23T19:17:51;56599.25;;;-146.93;80.82
21664;BME280;10993;52.510;13.456;2023-05-23T19:22:52;56599.25;;;-146.93;80.46
21664;BME280;10993;52.510;13.456;2023-05-23T19:27:53;56577.00;;;-146.93;79.81
21664;BME280;10993;52.510;13.456;2023-05-23T19:32:53;56607.34;;;-146.93;79.28
21664;BME280;10993;52.510;13.456;2023-05-23T19:37:55;56751.13;;;-146.93;78.67
21664;BME280;10993;52.510;13.456;2023-05-23T19:42:56;56603.31;;;-146.93;78.43
21664;BME280;10993;52.510;13.456;2023-05-23T19:47:56;56623.56;;;-146.93;77.74
21664;BME280;10993;52.510;13.456;2023-05-23T19:52:58;56664.06;;;-146.93;77.37
21664;BME280;10993;52.510;13.456;2023-05-23T19:57:58;56637.72;;;-146.93;76.78
21664;BME280;10993;52.510;13.456;2023-05-23T20:02:58;56682.28;;;-146.93;75.96
21664;BME280;10993;52.510;13.456;2023-05-23T20:08:00;56655.94;;;-146.93;75.33
21664;BME280;10993;52.510;13.456;2023-05-23T20:13:00;56698.47;;;-146.93;73.60
21664;BME280;10993;52.510;13.456;2023-05-23T20:18:01;56686.31;;;-146.93;73.41
21664;BME280;10993;52.510;13.456;2023-05-23T20:23:03;56688.34;;;-146.93;72.42
21664;BME280;10993;52.510;13.456;2023-05-23T20:28:04;56688.34;;;-146.93;70.77
21664;BME280;10993;52.510;13.456;2023-05-23T20:33:05;56696.44;;;-146.93;68.93
21664;BME280;10993;52.510;13.456;2023-05-23T20:38:06;56714.66;;;-146.93;67.30
21664;BME280;10993;52.510;13.456;2023-05-23T20:43:08;56674.19;;;-146.93;64.21
21664;BME280;10993;52.510;13.456;2023-05-23T20:48:09;56824.00;;;-146.93;63.11
21664;BME280;10993;52.510;13.456;2023-05-23T20:53:11;56635.72;;;-146.93;62.91
21664;BME280;10993;52.510;13.456;2023-05-23T20:58:11;56684.31;;;-146.93;60.34
21664;BME280;10993;52.510;13.456;2023-05-23T21:03:12;56645.81;;;-146.93;60.12
21664;BME280;10993;52.510;13.456;2023-05-23T21:08:13;56664.06;;;-146.93;59.15
21664;BME280;10993;52.510;13.456;2023-05-23T21:13:14;56666.06;;;-146.93;59.04
21664;BME280;10993;52.510;13.456;2023-05-23T21:18:14;56637.72;;;-146.93;58.95
21664;BME280;10993;52.510;13.456;2023-05-23T21:23:16;56589.13;;;-146.93;57.96
21664;BME280;10993;52.510;13.456;2023-05-23T21:28:17;56611.41;;;-146.93;58.11
21664;BME280;10993;52.510;13.456;2023-05-23T21:33:17;56485.88;;;-146.93;57.61
21664;BME280;10993;52.510;13.456;2023-05-23T21:38:19;56516.25;;;-146.93;57.66
21664;BME280;10993;52.510;13.456;2023-05-23T21:43:19;56572.94;;;-146.93;57.91
21664;BME280;10993;52.510;13.456;2023-05-23T21:48:20;56516.25;;;-146.93;57.49
21664;BME280;10993;52.510;13.456;2023-05-23T21:53:21;56524.34;;;-146.93;57.21
21664;BME280;10993;52.510;13.456;2023-05-23T21:58:22;56548.66;;;-146.93;57.07
21664;BME280;10993;52.510;13.456;2023-05-23T22:03:22;56560.78;;;-146.93;57.16
21664;BME280;10993;52.510;13.456;2023-05-23T22:08:24;56560.78;;;-146.93;57.14
21664;BME280;10993;52.510;13.456;2023-05-23T22:13:25;56536.50;;;-146.93;56.76
21664;BME280;10993;52.510;13.456;2023-05-23T22:18:25;56558.75;;;-146.93;56.77
21664;BME280;10993;52.510;13.456;2023-05-23T22:23:28;56532.44;;;-146.93;57.11
21664;BME280;10993;52.510;13.456;2023-05-23T22:28:28;56516.25;;;-146.93;57.47
21664;BME280;10993;52.510;13.456;2023-05-23T22:33:29;56512.19;;;-146.93;58.36
21664;BME280;10993;52.510;13.456;2023-05-23T22:38:30;56500.06;;;-146.93;58.40
21664;BME280;10993;52.510;13.456;2023-05-23T22:43:31;56479.81;;;-146.93;58.51
21664;BME280;10993;52.510;13.456;2023-05-23T22:48:31;56386.66;;;-146.93;58.99
21664;BME280;10993;52.510;13.456;2023-05-23T22:53:34;56449.44;;;-146.93;58.49
21664;BME280;10993;52.510;13.456;2023-05-23T22:58:34;56698.47;;;-146.93;58.03
21664;BME280;10993;52.510;13.456;2023-05-23T23:03:34;56530.41;;;-146.93;58.06
21664;BME280;10993;52.510;13.456;2023-05-23T23:08:36;56502.06;;;-146.93;57.41
21664;BME280;10993;52.510;13.456;2023-05-23T23:13:36;56487.91;;;-146.93;56.97
21664;BME280;10993;52.510;13.456;2023-05-23T23:18:37;56445.38;;;-146.93;56.44
21664;BME280;10993;52.510;13.456;2023-05-23T23:23:38;56479.81;;;-146.93;56.07
21664;BME280;10993;52.510;13.456;2023-05-23T23:28:39;56475.75;;;-146.93;56.78
21664;BME280;10993;52.510;13.456;2023-05-23T23:33:39;56502.06;;;-146.93;56.68
21664;BME280;10993;52.510;13.456;2023-05-23T23:38:41;56500.06;;;-146.93;56.94
21664;BME280;10993;52.510;13.456;2023-05-23T23:43:41;56986.00;;;-146.93;57.38
21664;BME280;10993;52.510;13.456;2023-05-23T23:48:41;56491.94;;;-146.93;57.97
21664;BME280;10993;52.510;13.456;2023-05-23T23:53:43;56301.63;;;-146.93;57.97
21664;BME280;10993;52.510;13.456;2023-05-23T23:58:43;56483.84;;;-146.93;57.54
